Time;durP1;ratioP1;P1;durP2;ratioP2;P2;SDS_P1;SDS_P2;PMS_P1;PMS_P2;Temp;Humidity;BMP_temperature;BMP_pressure;BME280_temperature;BME280_humidity;BME280_pressure;Samples;Min_cycle;Max_cycle;Signal;HPM_P1;HPM_P2
2022/12/27 00:02:12;;;;;;;45.15;28.27;;;;;;;3.09;100.00;100643.25;5052245;28;20047;-70
2022/12/27 00:04:39;;;;;;;45.25;27.65;;;;;;;2.96;100.00;100658.13;5053991;28;20397;-70
2022/12/27 00:07:19;;;;;;;38.53;25.40;;;;;;;2.61;100.00;100542.22;5052328;28;20041;-70
2022/12/27 00:09:44;;;;;;;35.35;23.58;;;;;;;3.12;100.00;100653.34;5053650;28;20108;-70
2022/12/27 00:12:09;;;;;;;37.35;23.40;;;;;;;2.72;100.00;100568.28;5035519;28;20095;-70
2022/12/27 00:14:35;;;;;;;31.33;22.05;;;;;;;2.20;100.00;100530.78;5053228;28;20045;-70
2022/12/27 00:17:00;;;;;;;34.75;23.63;;;;;;;2.62;100.00;100562.31;5053249;28;20454;-69
2022/12/27 00:19:26;;;;;;;40.75;26.80;;;;;;;2.60;100.00;100588.19;5053288;28;20041;-70
2022/12/27 00:21:51;;;;;;;36.40;27.75;;;;;;;2.51;100.00;100542.94;5053081;28;20107;-69
2022/12/27 00:24:17;;;;;;;43.33;29.33;;;;;;;3.13;100.00;100627.41;5053615;28;20045;-69
2022/12/27 00:26:42;;;;;;;43.10;28.55;;;;;;;2.84;100.00;100560.91;5052600;28;20040;-69
2022/12/27 00:29:09;;;;;;;43.30;28.58;;;;;;;3.17;100.00;100639.16;5034959;28;20045;-69
2022/12/27 00:31:35;;;;;;;45.58;28.92;;;;;;;2.98;100.00;100551.03;5033699;28;20037;-69
2022/12/27 00:34:02;;;;;;;41.83;26.70;;;;;;;3.16;100.00;100624.09;5052985;28;20037;-69
2022/12/27 00:36:30;;;;;;;44.33;27.55;;;;;;;2.74;100.00;100604.28;5052552;28;20064;-69
2022/12/27 00:38:57;;;;;;;43.47;26.65;;;;;;;3.31;100.00;100632.63;5052566;28;20060;-69
2022/12/27 00:41:22;;;;;;;42.30;26.60;;;;;;;3.02;100.00;100626.44;5052194;28;20068;-70
2022/12/27 00:43:48;;;;;;;44.15;26.58;;;;;;;2.83;100.00;100561.75;5052937;28;20044;-70
2022/12/27 00:46:14;;;;;;;46.53;30.10;;;;;;;2.75;100.00;100534.88;5052496;28;20746;-70
2022/12/27 00:48:40;;;;;;;46.22;31.27;;;;;;;2.99;100.00;100608.78;5053090;28;20041;-71
2022/12/27 00:51:09;;;;;;;44.65;31.02;;;;;;;3.06;100.00;100618.09;5034633;28;20610;-70
2022/12/27 00:53:35;;;;;;;40.78;28.10;;;;;;;3.12;100.00;100604.78;5052978;28;20052;-70
2022/12/27 00:56:04;;;;;;;42.00;28.80;;;;;;;2.59;100.00;100557.25;5052357;28;20479;-70
2022/12/27 00:58:30;;;;;;;48.83;38.05;;;;;;;3.00;100.00;100617.19;5034572;28;20094;-70
2022/12/27 01:01:05;;;;;;;47.97;36.63;;;;;;;2.81;100.00;100611.09;5034790;28;20044;-72
2022/12/27 01:03:30;;;;;;;46.30;33.70;;;;;;;2.90;100.00;100608.69;5034001;28;20037;-69
2022/12/27 01:05:56;;;;;;;49.47;33.90;;;;;;;2.73;100.00;100590.06;5034632;28;20048;-70
2022/12/27 01:08:21;;;;;;;46.92;35.33;;;;;;;2.56;100.00;100542.16;5034251;28;20029;-70
2022/12/27 01:10:47;;;;;;;46.60;34.17;;;;;;;2.28;100.00;100549.28;5052123;28;20067;-70
2022/12/27 01:13:12;;;;;;;47.00;35.47;;;;;;;2.94;100.00;100592.00;5051863;28;20044;-70
2022/12/27 01:15:40;;;;;;;50.97;37.83;;;;;;;2.94;100.00;100584.47;5052343;28;20037;-70
2022/12/27 01:18:06;;;;;;;46.17;33.58;;;;;;;3.09;100.00;100575.44;5052358;28;20033;-70
2022/12/27 01:20:31;;;;;;;43.45;31.42;;;;;;;3.14;100.00;100581.38;5034454;28;20041;-70
2022/12/27 01:22:57;;;;;;;44.78;29.90;;;;;;;2.79;100.00;100576.75;5051299;28;20502;-72
2022/12/27 01:25:22;;;;;;;41.50;29.30;;;;;;;2.32;100.00;100520.91;5052503;28;20079;-71
2022/12/27 01:27:47;;;;;;;37.47;27.33;;;;;;;2.87;100.00;100588.59;5051647;28;20574;-70
2022/12/27 01:30:13;;;;;;;40.38;27.75;;;;;;;2.49;100.00;100519.47;5051853;28;20120;-70
2022/12/27 01:32:38;;;;;;;43.17;28.45;;;;;;;2.21;100.00;100530.81;5051682;28;20033;-70
2022/12/27 01:35:04;;;;;;;36.63;26.52;;;;;;;2.40;100.00;100511.81;5052187;28;20036;-70
2022/12/27 01:37:29;;;;;;;40.08;26.75;;;;;;;2.93;100.00;100576.06;5034419;28;20514;-70
2022/12/27 01:39:55;;;;;;;45.67;32.78;;;;;;;2.44;100.00;100499.34;5052114;28;20124;-70
2022/12/27 01:45:23;;;;;;;42.15;29.10;;;;;;;2.42;100.00;100505.16;5051543;28;20040;-70
2022/12/27 01:47:50;;;;;;;44.65;31.15;;;;;;;2.52;100.00;100524.53;5051530;28;20503;-70
2022/12/27 01:50:31;;;;;;;46.25;32.45;;;;;;;2.13;100.00;100498.91;5050696;28;20041;-70
2022/12/27 01:53:11;;;;;;;45.20;31.90;;;;;;;2.69;100.00;100558.22;5051411;28;20044;-69
2022/12/27 01:55:58;;;;;;;45.17;31.92;;;;;;;2.90;100.00;100567.69;5051225;28;20044;-70
2022/12/27 01:58:40;;;;;;;48.65;34.33;;;;;;;2.64;100.00;100557.31;5051568;28;20045;-69
2022/12/27 02:01:10;;;;;;;41.35;31.35;;;;;;;2.60;100.00;100480.31;5051205;28;20599;-70
2022/12/27 02:03:40;;;;;;;;;;;;;;;2.86;100.00;100539.19;5051138;28;20084;-69
2022/12/27 02:06:08;;;;;;;42.35;29.63;;;;;;;3.01;100.00;100523.47;5033548;28;19967;-70
2022/12/27 02:08:54;;;;;;;47.20;32.40;;;;;;;2.42;100.00;100453.34;5051501;28;20095;-70
2022/12/27 02:11:49;;;;;;;49.33;34.20;;;;;;;2.86;100.00;100510.72;5033480;28;20072;-70
2022/12/27 02:14:10;;;;;;;48.30;35.60;;;;;;;2.63;100.00;100467.81;5051002;28;20033;-70
2022/12/27 02:16:36;;;;;;;45.75;34.35;;;;;;;2.83;100.00;100526.63;5050941;28;20515;-70
2022/12/27 02:19:06;;;;;;;48.08;34.60;;;;;;;3.04;100.00;100536.03;5051202;28;20061;-70
2022/12/27 02:21:34;;;;;;;46.40;32.80;;;;;;;2.81;100.00;100537.44;5050850;28;20064;-72
2022/12/27 02:24:12;;;;;;;41.60;30.25;;;;;;;3.09;100.00;100517.69;5051093;28;20044;-70
2022/12/27 02:26:44;;;;;;;50.55;32.67;;;;;;;2.86;100.00;100508.22;5033112;28;20068;-70
2022/12/27 02:29:34;;;;;;;51.20;32.92;;;;;;;2.85;100.00;100509.06;5033263;28;20045;-70
2022/12/27 02:32:26;;;;;;;62.38;33.95;;;;;;;2.79;100.00;100508.97;5033322;28;20410;-70
2022/12/27 02:35:19;;;;;;;55.78;30.67;;;;;;;2.64;100.00;100507.13;5028492;28;20037;-69
2022/12/27 02:37:53;;;;;;;58.58;32.65;;;;;;;2.89;100.00;100483.16;5033109;28;20045;-70
2022/12/27 02:55:32;;;;;;;71.25;37.85;;;;;;;2.79;100.00;100478.88;5050853;28;20052;-70
2022/12/27 02:58:17;;;;;;;64.05;36.28;;;;;;;2.61;100.00;100477.00;5050873;28;20056;-70
2022/12/27 03:04:02;;;;;;;65.60;32.17;;;;;;;1.95;100.00;100399.22;5045188;28;20059;-71
2022/12/27 03:06:51;;;;;;;72.75;33.85;;;;;;;2.38;100.00;100485.88;5050345;28;20040;-70
2022/12/27 03:15:54;;;;;;;67.15;32.15;;;;;;;2.11;100.00;100476.34;5050811;28;20052;-69
2022/12/27 03:18:30;;;;;;;56.83;31.27;;;;;;;1.91;100.00;100405.03;5050508;28;20186;-70
2022/12/27 03:26:33;;;;;;;53.53;31.13;;;;;;;1.77;100.00;100384.78;5050661;28;20419;-69
2022/12/27 03:34:39;;;;;;;49.70;29.10;;;;;;;1.46;100.00;100407.72;5049749;28;20132;-71
2022/12/27 03:40:17;;;;;;;46.65;28.52;;;;;;;1.51;100.00;100393.59;5049897;28;20426;-69
2022/12/27 03:48:55;;;;;;;48.97;29.42;;;;;;;1.86;100.00;100458.41;5050308;28;20060;-70
2022/12/27 03:51:23;;;;;;;45.65;29.08;;;;;;;1.53;100.00;100396.13;5050074;28;20037;-69
2022/12/27 03:53:54;;;;;;;45.50;29.40;;;;;;;1.86;100.00;100428.34;5050435;28;20067;-69
2022/12/27 03:56:20;;;;;;;46.92;29.20;;;;;;;1.04;100.00;100324.44;5032477;28;20041;-69
2022/12/27 03:58:45;;;;;;;48.72;31.30;;;;;;;1.83;100.00;100424.13;5048922;28;20044;-70
2022/12/27 04:01:10;;;;;;;50.03;32.67;;;;;;;1.78;100.00;100433.25;5048814;28;20414;-70
2022/12/27 04:03:36;;;;;;;46.78;29.27;;;;;;;1.74;100.00;100441.53;5031980;28;20041;-69
2022/12/27 04:06:01;;;;;;;43.85;28.88;;;;;;;1.68;100.00;100393.84;5049845;28;20045;-70
2022/12/27 04:35:58;;;;;;;72.88;43.08;;;;;;;1.89;100.00;100440.91;5053166;28;20044;-71
2022/12/27 04:38:26;;;;;;;65.63;38.05;;;;;;;1.23;100.00;100323.06;5053322;28;20045;-70
2022/12/27 04:54:56;;;;;;;49.33;29.42;;;;;;;1.47;100.00;100454.47;5052663;28;20056;-70
2022/12/27 04:57:22;;;;;;;71.47;34.17;;;;;;;1.17;100.00;100458.97;5052784;28;20491;-70
2022/12/27 05:02:31;;;;;;;50.42;31.42;;;;;;;0.65;100.00;100377.13;5040470;28;20200;-70
2022/12/27 05:05:06;;;;;;;54.10;30.83;;;;;;;0.88;100.00;100393.41;5033117;28;20474;-70
2022/12/27 05:15:49;;;;;;;51.67;28.90;;;;;;;1.10;100.00;100397.13;5051903;28;20043;-70
2022/12/27 05:18:15;;;;;;;48.10;29.65;;;;;;;0.99;100.00;100371.06;5051618;28;20127;-70
2022/12/27 05:20:40;;;;;;;58.35;36.28;;;;;;;1.19;100.00;100449.00;5051783;28;20064;-70
2022/12/27 05:25:51;;;;;;;65.97;44.58;;;;;;;0.89;100.00;100392.56;5051871;28;20039;-70
2022/12/27 05:28:16;;;;;;;60.40;37.25;;;;;;;1.18;100.00;100419.78;5052134;28;20242;-69
2022/12/27 05:30:42;;;;;;;62.00;38.70;;;;;;;1.43;100.00;100441.88;5052293;28;20435;-70
2022/12/27 05:33:08;;;;;;;65.43;41.45;;;;;;;1.37;100.00;100437.63;5051304;28;20036;-70
2022/12/27 05:35:34;;;;;;;61.55;38.63;;;;;;;1.35;100.00;100449.25;5051649;28;20071;-70
2022/12/27 05:38:00;;;;;;;65.63;38.42;;;;;;;1.35;100.00;100450.91;5034374;28;20040;-70
2022/12/27 05:40:26;;;;;;;72.30;44.70;;;;;;;1.55;100.00;100440.41;5051812;28;20128;-70
2022/12/27 05:42:52;;;;;;;69.38;41.88;;;;;;;1.61;100.00;100427.13;5051512;28;20065;-69
2022/12/27 05:45:18;;;;;;;77.47;46.92;;;;;;;1.55;100.00;100400.34;5033870;28;20106;-71
2022/12/27 05:47:43;;;;;;;434.20;167.95;;;;;;;1.04;100.00;100341.97;5033874;28;20058;-71
2022/12/27 05:50:10;;;;;;;153.63;71.63;;;;;;;1.76;100.00;100444.91;5051073;28;20475;-71
2022/12/27 05:52:36;;;;;;;127.07;74.05;;;;;;;1.92;100.00;100464.38;5051198;28;20135;-71
2022/12/27 05:55:01;;;;;;;92.45;61.15;;;;;;;1.38;100.00;100380.88;5052049;28;20115;-70
2022/12/27 05:57:27;;;;;;;76.70;51.58;;;;;;;1.74;100.00;100434.84;5051696;28;20136;-70
2022/12/27 05:59:52;;;;;;;88.30;53.03;;;;;;;1.72;100.00;100451.53;5051637;28;20087;-71
2022/12/27 06:02:17;;;;;;;98.15;56.92;;;;;;;1.33;100.00;100375.78;5049780;28;20098;-70
2022/12/27 06:04:43;;;;;;;102.53;56.90;;;;;;;1.59;100.00;100402.06;5048036;28;20396;-70
2022/12/27 06:07:09;;;;;;;94.40;54.85;;;;;;;1.94;100.00;100474.41;5049299;28;20033;-70
2022/12/27 06:09:34;;;;;;;85.53;52.22;;;;;;;1.85;100.00;100447.53;5051582;28;20036;-70
2022/12/27 06:12:00;;;;;;;88.00;53.88;;;;;;;0.73;100.00;100329.78;5031305;28;20033;-73
2022/12/27 06:14:25;;;;;;;84.90;52.10;;;;;;;1.91;100.00;100442.63;5035779;28;20040;-70
2022/12/27 06:16:51;;;;;;;77.25;48.50;;;;;;;1.86;100.00;100445.88;5042123;28;20041;-71
2022/12/27 06:19:16;;;;;;;79.15;50.78;;;;;;;1.24;100.00;100369.78;5033241;28;20490;-70
2022/12/27 06:21:42;;;;;;;79.28;53.17;;;;;;;1.70;100.00;100397.22;5050650;28;20048;-72
2022/12/27 06:24:07;;;;;;;80.13;52.60;;;;;;;1.59;100.00;100384.53;5051077;28;20422;-71
2022/12/27 06:26:33;;;;;;;73.22;49.60;;;;;;;1.82;100.00;100406.56;5051525;28;20060;-70
2022/12/27 06:28:58;;;;;;;75.13;51.15;;;;;;;1.97;100.00;100461.91;5050680;28;20052;-71
2022/12/27 06:31:25;;;;;;;93.50;66.40;;;;;;;1.69;100.00;100395.53;5050887;28;20045;-71
2022/12/27 06:33:51;;;;;;;81.10;53.53;;;;;;;1.75;100.00;100395.63;5051579;28;20102;-72
2022/12/27 06:36:20;;;;;;;78.13;48.92;;;;;;;1.83;100.00;100393.19;5050715;28;20495;-71
2022/12/27 06:38:46;;;;;;;69.80;47.13;;;;;;;1.93;100.00;100456.03;5050610;28;20041;-70
2022/12/27 06:41:13;;;;;;;74.75;53.53;;;;;;;2.22;100.00;100451.41;5051067;28;20132;-71
2022/12/27 06:43:39;;;;;;;76.35;53.95;;;;;;;2.25;100.00;100456.44;5050854;28;20510;-72
2022/12/27 06:46:13;;;;;;;76.28;59.05;;;;;;;1.69;100.00;100366.31;5050895;28;20120;-71
2022/12/27 06:48:39;;;;;;;53.75;34.08;;;;;;;1.55;100.00;100386.97;5033307;28;20102;-70
2022/12/27 06:51:07;;;;;;;59.55;41.53;;;;;;;1.88;100.00;100357.38;5050352;28;20116;-70
2022/12/27 06:53:35;;;;;;;50.65;35.13;;;;;;;2.38;100.00;100436.56;5051011;28;20059;-73
2022/12/27 06:56:04;;;;;;;49.78;35.17;;;;;;;1.98;100.00;100403.44;5033194;28;20044;-72
2022/12/27 06:58:30;;;;;;;52.58;36.80;;;;;;;2.35;100.00;100444.06;5050425;28;20037;-71
2022/12/27 07:00:55;;;;;;;55.42;38.03;;;;;;;2.37;100.00;100388.88;5049265;28;20636;-72
2022/12/27 07:03:21;;;;;;;90.40;53.50;;;;;;;1.85;100.00;100455.06;5030640;28;20474;-72
2022/12/27 07:05:46;;;;;;;54.35;37.50;;;;;;;1.55;100.00;100447.94;5029744;28;20040;-72
2022/12/27 07:08:11;;;;;;;61.30;38.83;;;;;;;1.28;100.00;100322.31;5029949;28;20089;-72
2022/12/27 07:10:37;;;;;;;61.75;40.35;;;;;;;1.98;100.00;100459.41;5030057;28;20769;-72
2022/12/27 07:13:03;;;;;;;55.47;37.40;;;;;;;1.77;100.00;100434.91;5030526;28;20037;-72
2022/12/27 07:15:28;;;;;;;49.90;34.42;;;;;;;1.11;100.00;100318.69;5049458;28;20564;-72
2022/12/27 07:17:53;;;;;;;51.88;35.15;;;;;;;1.53;100.00;100384.44;5049552;28;20041;-71
2022/12/27 07:20:19;;;;;;;54.70;36.22;;;;;;;1.73;100.00;100378.06;5050691;28;20033;-71
2022/12/27 07:22:44;;;;;;;55.22;38.20;;;;;;;2.41;100.00;100436.59;5050274;28;20040;-71
2022/12/27 07:25:10;;;;;;;59.25;40.28;;;;;;;2.35;100.00;100448.22;5050501;28;20554;-70
2022/12/27 07:27:36;;;;;;;61.92;40.35;;;;;;;2.38;100.00;100443.22;5049669;28;20033;-71
2022/12/27 07:30:03;;;;;;;57.92;39.15;;;;;;;2.53;100.00;100356.47;5024548;28;20045;-71
2022/12/27 07:32:29;;;;;;;89.82;70.97;;;;;;;2.90;100.00;100437.97;5040328;28;20068;-72
2022/12/27 07:34:54;;;;;;;55.28;39.42;;;;;;;2.47;100.00;100378.13;5046660;28;20484;-72
2022/12/27 07:37:19;;;;;;;62.08;42.65;;;;;;;2.74;100.00;100426.09;5049688;28;20037;-69
2022/12/27 07:39:45;;;;;;;66.07;42.00;;;;;;;2.04;100.00;100364.25;5050155;28;20132;-70
2022/12/27 07:42:10;;;;;;;51.90;38.60;;;;;;;2.94;100.00;100441.34;5049975;28;20045;-72
2022/12/27 07:44:36;;;;;;;53.83;36.25;;;;;;;2.76;100.00;100451.19;5050545;28;20048;-70
2022/12/27 07:47:01;;;;;;;50.13;34.42;;;;;;;2.47;100.00;100295.34;5050290;28;20530;-70
2022/12/27 07:49:27;;;;;;;48.95;33.15;;;;;;;2.02;100.00;100363.38;5051648;28;20057;-71
2022/12/27 07:51:52;;;;;;;48.42;33.42;;;;;;;3.07;100.00;100418.88;5036283;28;20431;-71
2022/12/27 07:54:18;;;;;;;50.83;37.20;;;;;;;2.66;100.00;100415.13;5054336;28;20127;-73
2022/12/27 07:56:43;;;;;;;51.13;36.10;;;;;;;2.34;100.00;100444.00;5049241;28;20043;-71
2022/12/27 07:59:11;;;;;;;53.25;35.88;;;;;;;2.82;100.00;100444.59;5046245;28;20124;-71
2022/12/27 08:04:21;;;;;;;69.68;49.92;;;;;;;3.59;100.00;100419.31;5034192;28;20056;-70
2022/12/27 08:06:49;;;;;;;77.90;57.25;;;;;;;3.35;100.00;100362.19;5044521;28;20045;-70
2022/12/27 08:09:24;;;;;;;53.92;40.53;;;;;;;3.25;100.00;100362.94;5054042;28;20510;-71
2022/12/27 08:11:50;;;;;;;56.53;43.55;;;;;;;3.53;100.00;100426.84;5035795;28;20124;-71
2022/12/27 08:14:15;;;;;;;82.70;39.35;;;;;;;5.72;100.00;100404.00;5053894;28;20606;-72
2022/12/27 08:16:40;;;;;;;53.05;37.50;;;;;;;3.26;100.00;100434.97;5054044;28;20035;-72
2022/12/27 08:19:06;;;;;;;50.80;36.10;;;;;;;2.66;100.00;100367.47;5053574;28;20553;-72
2022/12/27 08:21:31;;;;;;;52.15;36.97;;;;;;;3.71;100.00;100419.41;5052892;28;20083;-71
2022/12/27 08:23:56;;;;;;;44.90;31.67;;;;;;;2.83;100.00;100396.09;5035259;28;20416;-73
2022/12/27 08:26:23;;;;;;;60.70;43.15;;;;;;;3.86;100.00;100425.38;5053780;28;20149;-72
2022/12/27 08:28:48;;;;;;;52.72;37.28;;;;;;;3.81;100.00;100428.69;5044440;28;20045;-73
2022/12/27 08:31:14;;;;;;;48.10;37.13;;;;;;;4.00;100.00;100377.69;5053656;28;20116;-71
2022/12/27 08:33:40;;;;;;;46.35;35.17;;;;;;;3.37;100.00;100285.16;5053511;28;20029;-71
2022/12/27 08:36:07;;;;;;;67.75;40.67;;;;;;;5.80;100.00;100386.31;5053807;28;20033;-75
2022/12/27 08:38:33;;;;;;;55.42;39.70;;;;;;;4.90;100.00;100395.56;5023272;28;20092;-72
2022/12/27 08:41:01;;;;;;;52.22;37.85;;;;;;;3.90;100.00;100380.97;5033669;28;20033;-72
2022/12/27 08:43:28;;;;;;;46.95;35.33;;;;;;;4.11;100.00;100411.25;5032641;28;20037;-72
2022/12/27 08:46:00;;;;;;;51.00;38.17;;;;;;;3.98;100.00;100308.94;5033078;28;20037;-72
2022/12/27 08:48:25;;;;;;;45.72;34.15;;;;;;;4.61;100.00;100404.75;5032804;28;20056;-72
2022/12/27 08:50:51;;;;;;;47.20;34.58;;;;;;;4.79;100.00;100397.25;5033079;28;20492;-72
2022/12/27 08:53:17;;;;;;;52.25;37.75;;;;;;;4.47;100.00;100367.78;5032329;28;20041;-71
2022/12/27 08:55:42;;;;;;;54.75;42.15;;;;;;;4.34;100.00;100311.53;5032165;28;20482;-70
2022/12/27 08:58:10;;;;;;;44.95;33.58;;;;;;;5.19;100.00;100383.84;5015112;28;20133;-73
2022/12/27 09:00:36;;;;;;;46.13;33.90;;;;;;;4.59;100.00;100252.03;5032650;28;20049;-71
2022/12/27 09:03:01;;;;;;;50.67;37.60;;;;;;;5.15;100.00;100386.38;5032218;28;20389;-71
2022/12/27 09:05:27;;;;;;;56.38;39.10;;;;;;;5.05;100.00;100332.59;5015443;28;20572;-72
2022/12/27 09:07:52;;;;;;;77.85;45.50;;;;;;;4.98;100.00;100350.25;5032495;28;20068;-73
2022/12/27 09:10:20;;;;;;;58.22;42.67;;;;;;;4.93;100.00;100312.44;5032839;28;20213;-73
2022/12/27 09:12:46;;;;;;;57.92;42.17;;;;;;;5.00;100.00;100341.00;5032994;28;20041;-72
2022/12/27 09:15:11;;;;;;;51.35;36.85;;;;;;;5.02;100.00;100324.22;5033387;28;20083;-72
2022/12/27 09:17:37;;;;;;;48.72;35.22;;;;;;;5.44;100.00;100388.88;5014925;28;20428;-72
2022/12/27 09:20:04;;;;;;;47.50;35.05;;;;;;;5.47;100.00;100346.84;5033057;28;20506;-71
2022/12/27 09:22:29;;;;;;;50.30;39.10;;;;;;;5.34;100.00;100377.97;5032738;28;20038;-72
2022/12/27 09:24:54;;;;;;;57.00;43.08;;;;;;;5.63;100.00;100366.16;5015018;28;20491;-71
2022/12/27 09:27:20;;;;;;;65.30;50.70;;;;;;;5.26;100.00;100309.94;5032349;28;20515;-73
2022/12/27 09:29:45;;;;;;;72.38;56.03;;;;;;;5.34;100.00;100316.63;5032671;28;20407;-72
2022/12/27 09:32:11;;;;;;;71.65;55.22;;;;;;;5.60;100.00;100398.97;5032431;28;20038;-72
2022/12/27 09:34:36;;;;;;;64.35;50.67;;;;;;;5.88;100.00;100370.31;5032304;28;20045;-71
2022/12/27 09:37:01;;;;;;;64.13;50.92;;;;;;;5.93;100.00;100362.75;5014795;28;20042;-72
2022/12/27 09:39:27;;;;;;;60.97;46.05;;;;;;;5.53;100.00;100303.13;5014515;28;20079;-72
2022/12/27 09:42:05;;;;;;;40.08;29.85;;;;;;;5.56;100.00;100371.22;5014637;28;20094;-72
2022/12/27 09:45:04;;;;;;;42.83;30.15;;;;;;;6.07;100.00;100369.44;5032915;28;20037;-71
2022/12/27 09:47:38;;;;;;;40.03;29.23;;;;;;;5.61;100.00;100281.25;5032553;28;20041;-71
2022/12/27 09:50:11;;;;;;;39.40;29.95;;;;;;;6.21;100.00;100358.44;5032372;28;20037;-72
2022/12/27 09:52:48;;;;;;;42.08;31.00;;;;;;;5.73;100.00;100273.66;5031490;28;20124;-73
2022/12/27 09:55:35;;;;;;;43.53;31.50;;;;;;;6.58;100.00;100349.81;5032302;28;20071;-71
2022/12/27 09:58:17;;;;;;;43.00;31.48;;;;;;;5.92;100.00;100273.59;5032302;28;20037;-71
2022/12/27 10:00:44;;;;;;;38.78;28.15;;;;;;;5.97;100.00;100251.72;5032127;28;20384;-71
2022/12/27 10:03:11;;;;;;;36.85;27.08;;;;;;;6.09;100.00;100271.00;5014494;28;20038;-71
2022/12/27 10:05:38;;;;;;;37.55;27.75;;;;;;;6.64;100.00;100345.59;5031449;28;20136;-70
2022/12/27 10:08:31;;;;;;;34.80;27.10;;;;;;;6.85;100.00;100357.25;5014426;28;20053;-72
2022/12/27 10:11:34;;;;;;;34.00;25.45;;;;;;;6.71;100.00;100351.44;5031386;28;20068;-71
2022/12/27 10:14:15;;;;;;;33.55;23.63;;;;;;;6.39;100.00;100288.50;5031419;28;20030;-71
2022/12/27 10:17:06;;;;;;;39.72;28.60;;;;;;;6.59;100.00;100316.16;5014090;28;20038;-71
2022/12/27 10:19:46;;;;;;;32.50;23.27;;;;;;;6.68;100.00;100289.16;5031400;28;20044;-71
2022/12/27 10:22:12;;;;;;;31.30;23.83;;;;;;;7.03;100.00;100362.19;5031324;28;20077;-72
2022/12/27 10:24:46;;;;;;;39.92;26.60;;;;;;;7.03;100.00;100359.66;5013774;28;20550;-73
2022/12/27 10:27:15;;;;;;;42.22;32.25;;;;;;;7.06;100.00;100318.31;5031678;28;20087;-72
2022/12/27 10:29:42;;;;;;;43.80;33.22;;;;;;;7.00;100.00;100309.09;5013901;28;20103;-71
2022/12/27 10:32:11;;;;;;;39.05;29.75;;;;;;;6.91;100.00;100244.31;5013552;28;20041;-71
2022/12/27 10:34:37;;;;;;;38.80;28.02;;;;;;;7.56;100.00;100336.41;5031203;28;20039;-71
2022/12/27 10:37:03;;;;;;;37.05;28.52;;;;;;;7.23;100.00;100256.63;5013913;28;20034;-72
2022/12/27 10:39:32;;;;;;;38.47;28.23;;;;;;;7.28;100.00;100259.13;5029141;28;20042;-72
2022/12/27 10:42:25;;;;;;;39.42;29.25;;;;;;;7.78;100.00;100345.47;5031295;28;20049;-70
2022/12/27 10:44:54;;;;;;;38.80;29.88;;;;;;;7.82;100.00;100335.25;5031405;28;20044;-72
2022/12/27 10:47:24;;;;;;;44.92;32.05;;;;;;;7.73;100.00;100340.44;5013390;28;20045;-70
2022/12/27 10:50:11;;;;;;;46.58;34.72;;;;;;;7.88;100.00;100325.06;5030876;28;20079;-72
2022/12/27 10:52:37;;;;;;;38.85;30.27;;;;;;;8.05;100.00;100318.97;5013802;28;20030;-73
2022/12/27 10:55:02;;;;;;;53.33;34.03;;;;;;;7.93;100.00;100249.09;5031013;28;20110;-71
2022/12/27 10:57:32;;;;;;;38.50;28.50;;;;;;;8.32;100.00;100326.28;5031141;28;20041;-72
2022/12/27 11:00:17;;;;;;;33.83;25.98;;;;;;;8.14;100.00;100329.00;5013564;28;20068;-72
2022/12/27 11:02:56;;;;;;;35.85;28.00;;;;;;;8.18;100.00;100339.06;5013272;28;20128;-72
2022/12/27 11:05:29;;;;;;;37.03;26.92;;;;;;;8.52;100.00;100322.59;5031347;28;20124;-72
2022/12/27 11:07:55;;;;;;;35.33;27.23;;;;;;;8.26;100.00;100252.91;5031288;28;20033;-72
2022/12/27 11:10:26;;;;;;;35.15;26.23;;;;;;;8.69;100.00;100320.63;5013132;28;20040;-71
2022/12/27 11:12:56;;;;;;;28.35;22.88;;;;;;;8.92;100.00;100317.75;5030713;28;20041;-71
2022/12/27 11:15:24;;;;;;;32.28;23.67;;;;;;;8.52;100.00;100276.97;5030902;28;20091;-71
2022/12/27 11:17:54;;;;;;;47.72;30.55;;;;;;;8.87;100.00;100303.50;5030535;28;20558;-71
2022/12/27 11:20:19;;;;;;;38.65;26.35;;;;;;;8.93;100.00;100303.38;5030998;28;20048;-71
2022/12/27 11:22:50;;;;;;;28.13;21.67;;;;;;;8.52;100.00;100208.56;5031038;28;20422;-71
2022/12/27 11:25:15;;;;;;;31.38;22.48;;;;;;;8.68;100.00;100229.44;5016950;28;20104;-71
2022/12/27 11:27:48;;;;;;;34.47;25.65;;;;;;;8.96;100.00;100265.28;5016891;28;20041;-71
2022/12/27 11:30:21;;;;;;;32.47;25.17;;;;;;;8.79;100.00;100247.00;5034718;28;20033;-71
2022/12/27 11:32:46;;;;;;;31.73;24.75;;;;;;;9.37;100.00;100275.53;5034639;28;20041;-72
2022/12/27 11:35:20;;;;;;;26.23;20.88;;;;;;;9.28;100.00;100225.00;5034577;28;20049;-73
2022/12/27 11:37:47;;;;;;;28.42;20.58;;;;;;;9.57;100.00;100303.94;5016845;28;20048;-72
2022/12/27 11:40:21;;;;;;;28.50;21.90;;;;;;;9.23;100.00;100216.66;5034630;28;20111;-72
2022/12/27 11:42:52;;;;;;;31.13;22.30;;;;;;;9.37;100.00;100285.69;5016946;28;20037;-72
2022/12/27 11:45:17;;;;;;;33.27;25.80;;;;;;;9.41;100.00;100312.69;5017162;28;20455;-70
2022/12/27 11:47:50;;;;;;;34.65;27.30;;;;;;;9.63;100.00;100273.34;5034583;28;20037;-71
2022/12/27 11:50:27;;;;;;;35.22;25.27;;;;;;;9.84;100.00;100300.88;5034725;28;20055;-73
2022/12/27 11:53:24;;;;;;;33.42;25.98;;;;;;;10.15;100.00;100288.41;5033482;28;20037;-72
2022/12/27 11:56:08;;;;;;;35.72;25.48;;;;;;;10.00;100.00;100309.84;5034786;28;20030;-72
2022/12/27 11:58:43;;;;;;;32.92;25.92;;;;;;;10.24;100.00;100313.63;5016624;28;20041;-72
2022/12/27 12:01:17;;;;;;;22.15;16.60;;;;;;;10.58;100.00;100306.91;5034495;28;20045;-72
2022/12/27 12:03:58;;;;;;;26.30;19.67;;;;;;;10.66;100.00;100299.97;5034403;28;20044;-72
2022/12/27 12:06:52;;;;;;;24.70;19.75;;;;;;;10.68;100.00;100290.59;5034204;28;20029;-73
2022/12/27 12:09:29;;;;;;;35.28;26.02;;;;;;;10.94;100.00;100325.56;5034724;28;20069;-71
2022/12/27 12:12:03;;;;;;;29.85;20.50;;;;;;;11.14;100.00;100315.75;5034600;28;20068;-71
2022/12/27 12:14:34;;;;;;;23.27;18.55;;;;;;;11.19;100.00;100324.13;5034277;28;20046;-71
2022/12/27 12:17:30;;;;;;;23.42;18.52;;;;;;;11.29;100.00;100331.47;5015809;28;20037;-71
2022/12/27 12:20:14;;;;;;;21.10;15.93;;;;;;;11.51;100.00;100343.66;5033911;28;20041;-71
2022/12/27 12:22:58;;;;;;;27.50;20.27;;;;;;;11.40;100.00;100353.28;5016218;28;20041;-71
2022/12/27 12:25:55;;;;;;;23.88;17.63;;;;;;;10.59;100.00;100229.81;5033572;28;20046;-73
2022/12/27 12:28:48;;;;;;;26.02;18.23;;;;;;;11.50;100.00;100385.25;5034068;28;20047;-73
2022/12/27 12:31:45;;;;;;;21.98;16.17;;;;;;;11.34;100.00;100395.84;5033890;28;20040;-73
2022/12/27 12:34:52;;;;;;;33.03;23.33;;;;;;;11.26;100.00;100402.81;5033456;28;20092;-72
2022/12/27 12:37:48;;;;;;;22.77;17.40;;;;;;;11.26;100.00;100415.56;5005257;28;20128;-72
2022/12/27 12:40:24;;;;;;;25.30;18.92;;;;;;;11.19;100.00;100414.00;5015898;28;20037;-71
2022/12/27 12:43:08;;;;;;;25.85;18.67;;;;;;;11.11;100.00;100415.88;5033668;28;20065;-72
2022/12/27 12:45:42;;;;;;;35.53;26.92;;;;;;;11.25;100.00;100413.03;5015757;28;20469;-72
2022/12/27 12:48:59;;;;;;;28.75;22.60;;;;;;;11.13;100.00;100423.50;5033234;28;20539;-71
2022/12/27 12:51:42;;;;;;;31.92;23.52;;;;;;;11.02;100.00;100421.19;4999454;28;20128;-71
2022/12/27 12:54:28;;;;;;;33.72;25.05;;;;;;;11.06;100.00;100424.50;5033243;28;20038;-70
2022/12/27 12:57:12;;;;;;;35.25;26.00;;;;;;;11.11;100.00;100426.06;5012546;28;20613;-71
2022/12/27 13:00:24;;;;;;;31.52;24.80;;;;;;;11.14;100.00;100423.47;5032642;28;20053;-73
2022/12/27 13:03:08;;;;;;;;;;;;;;;11.20;100.00;100422.47;4997533;28;20104;-72
2022/12/27 13:05:48;;;;;;;32.38;24.17;;;;;;;11.11;100.00;100426.06;5033053;28;19956;-71
2022/12/27 13:08:38;;;;;;;34.10;24.33;;;;;;;11.06;100.00;100432.13;5014874;28;20054;-72
2022/12/27 13:11:28;;;;;;;107.25;44.03;;;;;;;11.33;100.00;100428.94;5033333;28;20037;-72
2022/12/27 13:14:14;;;;;;;43.58;24.75;;;;;;;11.12;100.00;100381.09;5032920;28;20037;-72